sensor_id;sensor_type;location;lat;lon;timestamp;P1;durP1;ratioP1;P2;durP2;ratioP2
53261;SDS011;39658;51.090;-1.786;2023-04-07T00:00:43;6.63;;;2.88;;
53261;SDS011;39658;51.090;-1.786;2023-04-07T00:03:10;8.98;;;3.42;;
53261;SDS011;39658;51.090;-1.786;2023-04-07T00:05:37;9.07;;;2.80;;
53261;SDS011;39658;51.090;-1.786;2023-04-07T00:08:03;8.38;;;2.60;;
53261;SDS011;39658;51.090;-1.786;2023-04-07T00:10:32;9.07;;;2.72;;
53261;SDS011;39658;51.090;-1.786;2023-04-07T00:12:59;8.80;;;2.92;;
53261;SDS011;39658;51.090;-1.786;2023-04-07T00:15:26;8.25;;;2.90;;
53261;SDS011;39658;51.090;-1.786;2023-04-07T00:17:53;14.00;;;3.03;;
53261;SDS011;39658;51.090;-1.786;2023-04-07T00:20:20;8.00;;;4.03;;
53261;SDS011;39658;51.090;-1.786;2023-04-07T00:22:47;10.70;;;3.13;;
53261;SDS011;39658;51.090;-1.786;2023-04-07T00:25:13;7.47;;;2.80;;
53261;SDS011;39658;51.090;-1.786;2023-04-07T00:27:42;7.72;;;2.95;;
53261;SDS011;39658;51.090;-1.786;2023-04-07T00:30:09;11.50;;;2.97;;
53261;SDS011;39658;51.090;-1.786;2023-04-07T00:32:35;7.28;;;3.15;;
53261;SDS011;39658;51.090;-1.786;2023-04-07T00:35:02;12.40;;;3.70;;
53261;SDS011;39658;51.090;-1.786;2023-04-07T00:37:29;12.43;;;2.92;;
53261;SDS011;39658;51.090;-1.786;2023-04-07T00:39:56;9.57;;;3.15;;
53261;SDS011;39658;51.090;-1.786;2023-04-07T00:42:23;7.65;;;2.88;;
53261;SDS011;39658;51.090;-1.786;2023-04-07T00:44:52;9.13;;;3.47;;
53261;SDS011;39658;51.090;-1.786;2023-04-07T00:47:18;11.35;;;3.60;;
53261;SDS011;39658;51.090;-1.786;2023-04-07T00:49:45;7.55;;;3.13;;
53261;SDS011;39658;51.090;-1.786;2023-04-07T00:52:12;10.02;;;3.53;;
53261;SDS011;39658;51.090;-1.786;2023-04-07T00:54:40;7.55;;;3.15;;
53261;SDS011;39658;51.090;-1.786;2023-04-07T00:57:07;9.60;;;3.20;;
53261;SDS011;39658;51.090;-1.786;2023-04-07T00:59:34;12.80;;;3.42;;
53261;SDS011;39658;51.090;-1.786;2023-04-07T01:02:04;12.13;;;3.20;;
53261;SDS011;39658;51.090;-1.786;2023-04-07T01:04:38;7.15;;;3.28;;
53261;SDS011;39658;51.090;-1.786;2023-04-07T01:07:10;9.85;;;3.42;;
53261;SDS011;39658;51.090;-1.786;2023-04-07T01:09:42;15.88;;;4.38;;
53261;SDS011;39658;51.090;-1.786;2023-04-07T01:12:14;8.75;;;3.00;;
53261;SDS011;39658;51.090;-1.786;2023-04-07T01:14:49;8.43;;;3.13;;
53261;SDS011;39658;51.090;-1.786;2023-04-07T01:17:20;8.75;;;3.03;;
53261;SDS011;39658;51.090;-1.786;2023-04-07T01:19:52;10.50;;;3.15;;
53261;SDS011;39658;51.090;-1.786;2023-04-07T01:22:25;9.50;;;2.63;;
53261;SDS011;39658;51.090;-1.786;2023-04-07T01:25:02;9.60;;;3.25;;
53261;SDS011;39658;51.090;-1.786;2023-04-07T01:27:41;12.55;;;2.92;;
53261;SDS011;39658;51.090;-1.786;2023-04-07T01:30:16;8.90;;;3.30;;
53261;SDS011;39658;51.090;-1.786;2023-04-07T01:32:45;12.60;;;2.95;;
53261;SDS011;39658;51.090;-1.786;2023-04-07T01:35:15;10.35;;;3.17;;
53261;SDS011;39658;51.090;-1.786;2023-04-07T01:37:44;7.40;;;3.25;;
53261;SDS011;39658;51.090;-1.786;2023-04-07T01:40:13;10.95;;;3.20;;
53261;SDS011;39658;51.090;-1.786;2023-04-07T01:42:41;8.77;;;3.80;;
53261;SDS011;39658;51.090;-1.786;2023-04-07T01:45:10;9.52;;;4.00;;
53261;SDS011;39658;51.090;-1.786;2023-04-07T01:47:38;8.52;;;3.33;;
53261;SDS011;39658;51.090;-1.786;2023-04-07T01:50:06;14.45;;;3.60;;
53261;SDS011;39658;51.090;-1.786;2023-04-07T01:52:34;9.48;;;2.67;;
53261;SDS011;39658;51.090;-1.786;2023-04-07T01:55:02;8.48;;;2.90;;
53261;SDS011;39658;51.090;-1.786;2023-04-07T01:57:29;9.43;;;3.45;;
53261;SDS011;39658;51.090;-1.786;2023-04-07T01:59:56;9.18;;;2.85;;
53261;SDS011;39658;51.090;-1.786;2023-04-07T02:02:23;9.40;;;3.20;;
53261;SDS011;39658;51.090;-1.786;2023-04-07T02:04:53;8.50;;;3.15;;
53261;SDS011;39658;51.090;-1.786;2023-04-07T02:07:24;8.05;;;2.65;;
53261;SDS011;39658;51.090;-1.786;2023-04-07T02:09:57;10.80;;;3.38;;
53261;SDS011;39658;51.090;-1.786;2023-04-07T02:12:27;6.03;;;2.35;;
53261;SDS011;39658;51.090;-1.786;2023-04-07T02:14:56;10.55;;;2.90;;
53261;SDS011;39658;51.090;-1.786;2023-04-07T02:17:24;9.90;;;2.67;;
53261;SDS011;39658;51.090;-1.786;2023-04-07T02:19:54;9.32;;;2.67;;
53261;SDS011;39658;51.090;-1.786;2023-04-07T02:22:24;8.40;;;3.33;;
53261;SDS011;39658;51.090;-1.786;2023-04-07T02:24:52;7.70;;;2.20;;
53261;SDS011;39658;51.090;-1.786;2023-04-07T02:27:19;11.15;;;2.95;;
53261;SDS011;39658;51.090;-1.786;2023-04-07T02:29:45;8.57;;;3.08;;
53261;SDS011;39658;51.090;-1.786;2023-04-07T02:32:12;13.55;;;2.78;;
53261;SDS011;39658;51.090;-1.786;2023-04-07T02:34:39;10.90;;;3.08;;
53261;SDS011;39658;51.090;-1.786;2023-04-07T02:37:07;13.30;;;3.75;;
53261;SDS011;39658;51.090;-1.786;2023-04-07T02:39:34;11.65;;;3.35;;
53261;SDS011;39658;51.090;-1.786;2023-04-07T02:42:01;7.07;;;2.70;;
53261;SDS011;39658;51.090;-1.786;2023-04-07T02:44:27;11.10;;;3.50;;
53261;SDS011;39658;51.090;-1.786;2023-04-07T02:46:55;8.70;;;3.58;;
53261;SDS011;39658;51.090;-1.786;2023-04-07T02:49:22;10.93;;;3.45;;
53261;SDS011;39658;51.090;-1.786;2023-04-07T02:51:48;10.77;;;3.17;;
53261;SDS011;39658;51.090;-1.786;2023-04-07T02:54:16;8.80;;;2.80;;
53261;SDS011;39658;51.090;-1.786;2023-04-07T02:56:43;11.43;;;3.03;;
53261;SDS011;39658;51.090;-1.786;2023-04-07T02:59:10;7.38;;;3.13;;
53261;SDS011;39658;51.090;-1.786;2023-04-07T03:01:36;7.75;;;3.35;;
53261;SDS011;39658;51.090;-1.786;2023-04-07T03:04:04;9.48;;;3.33;;
53261;SDS011;39658;51.090;-1.786;2023-04-07T03:06:31;6.78;;;2.35;;
53261;SDS011;39658;51.090;-1.786;2023-04-07T03:08:58;8.18;;;2.55;;
53261;SDS011;39658;51.090;-1.786;2023-04-07T03:11:26;7.50;;;2.80;;
53261;SDS011;39658;51.090;-1.786;2023-04-07T03:13:53;9.73;;;3.10;;
53261;SDS011;39658;51.090;-1.786;2023-04-07T03:16:19;6.18;;;2.45;;
53261;SDS011;39658;51.090;-1.786;2023-04-07T03:18:46;6.32;;;2.88;;
53261;SDS011;39658;51.090;-1.786;2023-04-07T03:21:13;11.25;;;2.65;;
53261;SDS011;39658;51.090;-1.786;2023-04-07T03:23:40;8.80;;;3.15;;
53261;SDS011;39658;51.090;-1.786;2023-04-07T03:26:06;6.53;;;2.45;;
53261;SDS011;39658;51.090;-1.786;2023-04-07T03:28:35;15.23;;;3.05;;
53261;SDS011;39658;51.090;-1.786;2023-04-07T03:31:01;8.68;;;3.03;;
53261;SDS011;39658;51.090;-1.786;2023-04-07T03:33:28;11.38;;;2.72;;
53261;SDS011;39658;51.090;-1.786;2023-04-07T03:35:55;11.88;;;3.45;;
53261;SDS011;39658;51.090;-1.786;2023-04-07T03:38:22;10.07;;;2.38;;
53261;SDS011;39658;51.090;-1.786;2023-04-07T03:40:49;6.38;;;3.15;;
53261;SDS011;39658;51.090;-1.786;2023-04-07T03:43:15;8.77;;;2.72;;
53261;SDS011;39658;51.090;-1.786;2023-04-07T03:45:44;9.45;;;2.83;;
53261;SDS011;39658;51.090;-1.786;2023-04-07T03:48:11;5.18;;;2.30;;
53261;SDS011;39658;51.090;-1.786;2023-04-07T03:50:38;6.55;;;2.63;;
53261;SDS011;39658;51.090;-1.786;2023-04-07T03:53:05;6.07;;;2.83;;
53261;SDS011;39658;51.090;-1.786;2023-04-07T03:55:33;5.35;;;2.33;;
53261;SDS011;39658;51.090;-1.786;2023-04-07T03:58:00;10.63;;;3.13;;
53261;SDS011;39658;51.090;-1.786;2023-04-07T04:00:27;6.78;;;3.63;;
53261;SDS011;39658;51.090;-1.786;2023-04-07T04:02:57;7.47;;;2.70;;
53261;SDS011;39658;51.090;-1.786;2023-04-07T04:05:24;11.75;;;2.42;;
53261;SDS011;39658;51.090;-1.786;2023-04-07T04:07:50;7.07;;;2.72;;
53261;SDS011;39658;51.090;-1.786;2023-04-07T04:10:17;8.73;;;2.50;;
53261;SDS011;39658;51.090;-1.786;2023-04-07T04:12:45;9.00;;;2.30;;
53261;SDS011;39658;51.090;-1.786;2023-04-07T04:15:12;8.15;;;3.13;;
53261;SDS011;39658;51.090;-1.786;2023-04-07T04:17:39;7.55;;;2.42;;
53261;SDS011;39658;51.090;-1.786;2023-04-07T04:20:08;7.60;;;2.88;;
53261;SDS011;39658;51.090;-1.786;2023-04-07T04:22:35;7.97;;;2.83;;
53261;SDS011;39658;51.090;-1.786;2023-04-07T04:25:03;14.20;;;3.22;;
53261;SDS011;39658;51.090;-1.786;2023-04-07T04:27:30;6.55;;;2.70;;
53261;SDS011;39658;51.090;-1.786;2023-04-07T04:29:57;6.80;;;2.60;;
53261;SDS011;39658;51.090;-1.786;2023-04-07T04:32:23;10.43;;;3.90;;
53261;SDS011;39658;51.090;-1.786;2023-04-07T04:34:50;10.48;;;3.13;;
53261;SDS011;39658;51.090;-1.786;2023-04-07T04:37:18;10.90;;;2.97;;
53261;SDS011;39658;51.090;-1.786;2023-04-07T04:39:45;13.65;;;3.10;;
53261;SDS011;39658;51.090;-1.786;2023-04-07T04:42:12;8.90;;;3.45;;
53261;SDS011;39658;51.090;-1.786;2023-04-07T04:44:39;9.68;;;3.05;;
53261;SDS011;39658;51.090;-1.786;2023-04-07T04:47:05;9.27;;;2.60;;
53261;SDS011;39658;51.090;-1.786;2023-04-07T04:49:32;7.00;;;2.80;;
53261;SDS011;39658;51.090;-1.786;2023-04-07T04:51:59;9.35;;;3.38;;
53261;SDS011;39658;51.090;-1.786;2023-04-07T04:54:27;8.57;;;2.33;;
53261;SDS011;39658;51.090;-1.786;2023-04-07T04:56:54;6.97;;;2.20;;
53261;SDS011;39658;51.090;-1.786;2023-04-07T04:59:21;9.75;;;2.90;;
53261;SDS011;39658;51.090;-1.786;2023-04-07T05:01:48;8.57;;;3.30;;
53261;SDS011;39658;51.090;-1.786;2023-04-07T05:04:15;11.38;;;3.63;;
53261;SDS011;39658;51.090;-1.786;2023-04-07T05:06:42;11.88;;;3.20;;
53261;SDS011;39658;51.090;-1.786;2023-04-07T05:09:09;15.40;;;3.08;;
53261;SDS011;39658;51.090;-1.786;2023-04-07T05:11:37;10.05;;;3.22;;
53261;SDS011;39658;51.090;-1.786;2023-04-07T05:14:06;11.75;;;3.42;;
53261;SDS011;39658;51.090;-1.786;2023-04-07T05:16:33;13.50;;;3.13;;
53261;SDS011;39658;51.090;-1.786;2023-04-07T05:19:00;8.43;;;2.80;;
53261;SDS011;39658;51.090;-1.786;2023-04-07T05:21:27;12.45;;;3.63;;
53261;SDS011;39658;51.090;-1.786;2023-04-07T05:23:53;18.92;;;4.18;;
53261;SDS011;39658;51.090;-1.786;2023-04-07T05:26:20;9.45;;;3.60;;
53261;SDS011;39658;51.090;-1.786;2023-04-07T05:28:48;8.68;;;2.55;;
53261;SDS011;39658;51.090;-1.786;2023-04-07T05:31:15;12.82;;;2.75;;
53261;SDS011;39658;51.090;-1.786;2023-04-07T05:33:41;8.20;;;2.60;;
53261;SDS011;39658;51.090;-1.786;2023-04-07T05:36:08;10.65;;;2.60;;
53261;SDS011;39658;51.090;-1.786;2023-04-07T05:38:35;8.75;;;2.90;;
53261;SDS011;39658;51.090;-1.786;2023-04-07T05:41:02;6.10;;;3.05;;
53261;SDS011;39658;51.090;-1.786;2023-04-07T05:43:28;7.90;;;2.42;;
53261;SDS011;39658;51.090;-1.786;2023-04-07T05:45:57;8.93;;;2.58;;
53261;SDS011;39658;51.090;-1.786;2023-04-07T05:48:23;10.52;;;3.03;;
53261;SDS011;39658;51.090;-1.786;2023-04-07T05:50:50;13.23;;;3.47;;
53261;SDS011;39658;51.090;-1.786;2023-04-07T05:53:17;9.00;;;3.28;;
53261;SDS011;39658;51.090;-1.786;2023-04-07T05:55:44;12.00;;;3.33;;
53261;SDS011;39658;51.090;-1.786;2023-04-07T05:58:10;12.60;;;3.60;;
53261;SDS011;39658;51.090;-1.786;2023-04-07T06:00:37;8.93;;;4.10;;
53261;SDS011;39658;51.090;-1.786;2023-04-07T06:03:07;9.70;;;3.22;;
53261;SDS011;39658;51.090;-1.786;2023-04-07T06:05:34;9.48;;;3.38;;
53261;SDS011;39658;51.090;-1.786;2023-04-07T06:08:01;10.38;;;3.83;;
53261;SDS011;39658;51.090;-1.786;2023-04-07T06:10:28;8.40;;;4.15;;
53261;SDS011;39658;51.090;-1.786;2023-04-07T06:12:55;11.30;;;4.70;;
53261;SDS011;39658;51.090;-1.786;2023-04-07T06:15:22;8.15;;;3.50;;
53261;SDS011;39658;51.090;-1.786;2023-04-07T06:17:49;12.35;;;3.75;;
53261;SDS011;39658;51.090;-1.786;2023-04-07T06:20:17;8.55;;;3.80;;
53261;SDS011;39658;51.090;-1.786;2023-04-07T06:22:45;10.27;;;4.47;;
53261;SDS011;39658;51.090;-1.786;2023-04-07T06:25:12;13.02;;;3.58;;
53261;SDS011;39658;51.090;-1.786;2023-04-07T06:27:39;12.73;;;4.18;;
53261;SDS011;39658;51.090;-1.786;2023-04-07T06:30:06;15.60;;;3.70;;
53261;SDS011;39658;51.090;-1.786;2023-04-07T06:32:34;7.10;;;3.13;;
53261;SDS011;39658;51.090;-1.786;2023-04-07T06:35:00;8.95;;;2.13;;
53261;SDS011;39658;51.090;-1.786;2023-04-07T06:37:28;8.55;;;3.10;;
53261;SDS011;39658;51.090;-1.786;2023-04-07T06:39:56;9.40;;;2.30;;
53261;SDS011;39658;51.090;-1.786;2023-04-07T06:42:22;7.80;;;3.00;;
53261;SDS011;39658;51.090;-1.786;2023-04-07T06:44:49;7.78;;;2.50;;
53261;SDS011;39658;51.090;-1.786;2023-04-07T06:47:16;13.85;;;3.13;;
53261;SDS011;39658;51.090;-1.786;2023-04-07T06:49:43;14.35;;;2.90;;
53261;SDS011;39658;51.090;-1.786;2023-04-07T06:52:09;9.27;;;3.42;;
53261;SDS011;39658;51.090;-1.786;2023-04-07T06:54:38;12.68;;;3.28;;
53261;SDS011;39658;51.090;-1.786;2023-04-07T06:57:04;14.52;;;3.22;;
53261;SDS011;39658;51.090;-1.786;2023-04-07T06:59:35;9.82;;;4.85;;
53261;SDS011;39658;51.090;-1.786;2023-04-07T07:02:02;9.95;;;3.85;;
53261;SDS011;39658;51.090;-1.786;2023-04-07T07:04:31;17.02;;;3.15;;
53261;SDS011;39658;51.090;-1.786;2023-04-07T07:06:58;14.48;;;3.42;;
53261;SDS011;39658;51.090;-1.786;2023-04-07T07:09:25;11.30;;;2.97;;
53261;SDS011;39658;51.090;-1.786;2023-04-07T07:11:53;9.60;;;3.95;;
53261;SDS011;39658;51.090;-1.786;2023-04-07T07:14:20;13.27;;;3.50;;
53261;SDS011;39658;51.090;-1.786;2023-04-07T07:16:46;6.97;;;2.38;;
53261;SDS011;39658;51.090;-1.786;2023-04-07T07:19:13;9.77;;;2.35;;
53261;SDS011;39658;51.090;-1.786;2023-04-07T07:21:40;12.50;;;2.90;;
53261;SDS011;39658;51.090;-1.786;2023-04-07T07:24:07;12.23;;;2.70;;
53261;SDS011;39658;51.090;-1.786;2023-04-07T07:26:34;9.73;;;2.80;;
53261;SDS011;39658;51.090;-1.786;2023-04-07T07:29:02;7.55;;;2.25;;
53261;SDS011;39658;51.090;-1.786;2023-04-07T07:31:29;5.95;;;2.63;;
53261;SDS011;39658;51.090;-1.786;2023-04-07T07:33:56;10.10;;;1.83;;
53261;SDS011;39658;51.090;-1.786;2023-04-07T07:36:23;10.93;;;2.85;;
53261;SDS011;39658;51.090;-1.786;2023-04-07T07:38:50;12.48;;;2.60;;
53261;SDS011;39658;51.090;-1.786;2023-04-07T07:41:17;8.23;;;1.73;;
53261;SDS011;39658;51.090;-1.786;2023-04-07T07:43:45;11.25;;;3.42;;
53261;SDS011;39658;51.090;-1.786;2023-04-07T07:46:13;7.80;;;2.60;;
53261;SDS011;39658;51.090;-1.786;2023-04-07T07:48:40;7.97;;;2.60;;
53261;SDS011;39658;51.090;-1.786;2023-04-07T07:51:06;14.32;;;2.85;;
53261;SDS011;39658;51.090;-1.786;2023-04-07T07:53:33;13.02;;;2.70;;
53261;SDS011;39658;51.090;-1.786;2023-04-07T07:56:00;8.13;;;2.53;;
53261;SDS011;39658;51.090;-1.786;2023-04-07T07:58:26;14.05;;;2.97;;
53261;SDS011;39658;51.090;-1.786;2023-04-07T08:00:53;9.02;;;3.40;;
53261;SDS011;39658;51.090;-1.786;2023-04-07T08:03:21;11.68;;;3.47;;
53261;SDS011;39658;51.090;-1.786;2023-04-07T08:05:48;9.80;;;3.33;;
53261;SDS011;39658;51.090;-1.786;2023-04-07T08:08:15;11.40;;;2.60;;
53261;SDS011;39658;51.090;-1.786;2023-04-07T08:10:42;11.73;;;3.20;;
53261;SDS011;39658;51.090;-1.786;2023-04-07T08:13:08;12.88;;;3.03;;
53261;SDS011;39658;51.090;-1.786;2023-04-07T08:15:35;13.27;;;2.70;;
53261;SDS011;39658;51.090;-1.786;2023-04-07T08:18:02;11.18;;;3.45;;
53261;SDS011;39658;51.090;-1.786;2023-04-07T08:20:32;12.88;;;2.92;;
53261;SDS011;39658;51.090;-1.786;2023-04-07T08:22:59;8.52;;;2.88;;
53261;SDS011;39658;51.090;-1.786;2023-04-07T08:25:26;10.35;;;2.85;;
53261;SDS011;39658;51.090;-1.786;2023-04-07T08:27:53;8.95;;;2.50;;
53261;SDS011;39658;51.090;-1.786;2023-04-07T08:30:20;7.80;;;2.75;;
53261;SDS011;39658;51.090;-1.786;2023-04-07T08:32:47;7.57;;;2.15;;
53261;SDS011;39658;51.090;-1.786;2023-04-07T08:35:14;9.23;;;1.80;;
53261;SDS011;39658;51.090;-1.786;2023-04-07T08:37:42;8.77;;;2.22;;
53261;SDS011;39658;51.090;-1.786;2023-04-07T08:40:09;12.27;;;3.25;;
53261;SDS011;39658;51.090;-1.786;2023-04-07T08:42:39;4.88;;;1.60;;
53261;SDS011;39658;51.090;-1.786;2023-04-07T08:45:08;5.35;;;2.03;;
53261;SDS011;39658;51.090;-1.786;2023-04-07T08:47:36;7.13;;;2.17;;
53261;SDS011;39658;51.090;-1.786;2023-04-07T08:50:03;6.65;;;2.10;;
53261;SDS011;39658;51.090;-1.786;2023-04-07T08:55:02;6.10;;;1.30;;
53261;SDS011;39658;51.090;-1.786;2023-04-07T08:57:31;5.90;;;1.83;;
53261;SDS011;39658;51.090;-1.786;2023-04-07T08:59:59;7.13;;;2.53;;
53261;SDS011;39658;51.090;-1.786;2023-04-07T09:02:30;8.45;;;2.30;;
53261;SDS011;39658;51.090;-1.786;2023-04-07T09:04:57;5.38;;;1.88;;
53261;SDS011;39658;51.090;-1.786;2023-04-07T09:07:24;4.53;;;2.03;;
53261;SDS011;39658;51.090;-1.786;2023-04-07T09:09:51;6.78;;;1.83;;
53261;SDS011;39658;51.090;-1.786;2023-04-07T09:12:19;7.18;;;2.13;;
53261;SDS011;39658;51.090;-1.786;2023-04-07T09:14:46;5.40;;;1.42;;
53261;SDS011;39658;51.090;-1.786;2023-04-07T09:17:13;6.00;;;1.73;;
53261;SDS011;39658;51.090;-1.786;2023-04-07T09:19:40;6.57;;;1.73;;
53261;SDS011;39658;51.090;-1.786;2023-04-07T09:22:06;6.40;;;1.70;;
53261;SDS011;39658;51.090;-1.786;2023-04-07T09:24:36;5.97;;;1.88;;
53261;SDS011;39658;51.090;-1.786;2023-04-07T09:27:12;8.60;;;1.60;;
53261;SDS011;39658;51.090;-1.786;2023-04-07T09:29:42;5.00;;;1.38;;
53261;SDS011;39658;51.090;-1.786;2023-04-07T09:32:11;7.70;;;1.50;;
53261;SDS011;39658;51.090;-1.786;2023-04-07T09:34:39;7.85;;;1.85;;
53261;SDS011;39658;51.090;-1.786;2023-04-07T09:37:07;8.60;;;2.25;;
53261;SDS011;39658;51.090;-1.786;2023-04-07T09:39:47;8.75;;;2.25;;
53261;SDS011;39658;51.090;-1.786;2023-04-07T09:42:14;6.78;;;2.08;;
53261;SDS011;39658;51.090;-1.786;2023-04-07T09:44:42;5.85;;;1.27;;
53261;SDS011;39658;51.090;-1.786;2023-04-07T09:47:09;4.63;;;1.38;;
53261;SDS011;39658;51.090;-1.786;2023-04-07T09:49:47;4.65;;;1.73;;
53261;SDS011;39658;51.090;-1.786;2023-04-07T09:52:18;5.78;;;1.60;;
53261;SDS011;39658;51.090;-1.786;2023-04-07T09:54:45;5.72;;;1.80;;
53261;SDS011;39658;51.090;-1.786;2023-04-07T09:57:13;6.47;;;1.70;;
53261;SDS011;39658;51.090;-1.786;2023-04-07T09:59:43;5.63;;;2.42;;
53261;SDS011;39658;51.090;-1.786;2023-04-07T10:02:11;9.35;;;1.63;;
53261;SDS011;39658;51.090;-1.786;2023-04-07T10:04:38;7.20;;;2.40;;
53261;SDS011;39658;51.090;-1.786;2023-04-07T10:07:05;9.88;;;1.40;;
53261;SDS011;39658;51.090;-1.786;2023-04-07T10:09:32;5.32;;;1.45;;
53261;SDS011;39658;51.090;-1.786;2023-04-07T10:11:59;8.05;;;3.00;;
53261;SDS011;39658;51.090;-1.786;2023-04-07T10:14:26;5.70;;;1.90;;
53261;SDS011;39658;51.090;-1.786;2023-04-07T10:16:57;5.03;;;2.00;;
53261;SDS011;39658;51.090;-1.786;2023-04-07T10:19:26;7.18;;;2.13;;
53261;SDS011;39658;51.090;-1.786;2023-04-07T10:21:56;5.30;;;1.40;;
53261;SDS011;39658;51.090;-1.786;2023-04-07T10:24:32;6.90;;;1.75;;
53261;SDS011;39658;51.090;-1.786;2023-04-07T10:27:20;9.40;;;2.08;;
53261;SDS011;39658;51.090;-1.786;2023-04-07T10:29:52;5.63;;;1.58;;
53261;SDS011;39658;51.090;-1.786;2023-04-07T10:32:23;6.32;;;2.03;;
53261;SDS011;39658;51.090;-1.786;2023-04-07T10:34:57;4.80;;;1.42;;
53261;SDS011;39658;51.090;-1.786;2023-04-07T10:37:25;7.60;;;2.10;;
53261;SDS011;39658;51.090;-1.786;2023-04-07T10:42:53;7.22;;;1.60;;
53261;SDS011;39658;51.090;-1.786;2023-04-07T10:48:27;6.38;;;1.98;;
53261;SDS011;39658;51.090;-1.786;2023-04-07T10:51:13;7.53;;;2.20;;
53261;SDS011;39658;51.090;-1.786;2023-04-07T10:59:34;8.70;;;1.77;;
53261;SDS011;39658;51.090;-1.786;2023-04-07T11:04:57;7.65;;;2.15;;
53261;SDS011;39658;51.090;-1.786;2023-04-07T11:10:11;5.82;;;1.67;;
53261;SDS011;39658;51.090;-1.786;2023-04-07T11:12:40;7.25;;;2.72;;
53261;SDS011;39658;51.090;-1.786;2023-04-07T11:15:16;6.88;;;2.13;;
53261;SDS011;39658;51.090;-1.786;2023-04-07T11:17:44;8.93;;;1.40;;
53261;SDS011;39658;51.090;-1.786;2023-04-07T11:20:12;7.00;;;1.98;;
53261;SDS011;39658;51.090;-1.786;2023-04-07T11:22:39;7.68;;;1.77;;
53261;SDS011;39658;51.090;-1.786;2023-04-07T11:25:19;5.75;;;1.52;;
53261;SDS011;39658;51.090;-1.786;2023-04-07T11:27:47;3.83;;;1.33;;
53261;SDS011;39658;51.090;-1.786;2023-04-07T11:30:14;4.40;;;1.90;;
53261;SDS011;39658;51.090;-1.786;2023-04-07T11:32:46;4.15;;;2.03;;
53261;SDS011;39658;51.090;-1.786;2023-04-07T11:35:15;5.05;;;1.30;;
53261;SDS011;39658;51.090;-1.786;2023-04-07T11:37:42;5.43;;;2.17;;
53261;SDS011;39658;51.090;-1.786;2023-04-07T11:40:09;6.13;;;1.60;;
53261;SDS011;39658;51.090;-1.786;2023-04-07T11:42:38;7.05;;;1.33;;
53261;SDS011;39658;51.090;-1.786;2023-04-07T11:45:06;5.25;;;1.90;;
53261;SDS011;39658;51.090;-1.786;2023-04-07T11:47:41;4.22;;;1.50;;
53261;SDS011;39658;51.090;-1.786;2023-04-07T11:50:09;5.00;;;2.25;;
53261;SDS011;39658;51.090;-1.786;2023-04-07T11:52:43;4.28;;;1.70;;
53261;SDS011;39658;51.090;-1.786;2023-04-07T11:55:17;6.28;;;1.60;;
53261;SDS011;39658;51.090;-1.786;2023-04-07T11:57:45;5.68;;;1.77;;
53261;SDS011;39658;51.090;-1.786;2023-04-07T12:00:13;5.00;;;2.10;;
53261;SDS011;39658;51.090;-1.786;2023-04-07T12:02:40;6.00;;;2.17;;
53261;SDS011;39658;51.090;-1.786;2023-04-07T12:05:07;4.40;;;1.13;;
53261;SDS011;39658;51.090;-1.786;2023-04-07T12:07:35;3.75;;;1.95;;
53261;SDS011;39658;51.090;-1.786;2023-04-07T12:12:56;5.20;;;1.85;;
53261;SDS011;39658;51.090;-1.786;2023-04-07T12:15:23;5.00;;;1.25;;
53261;SDS011;39658;51.090;-1.786;2023-04-07T12:17:50;7.13;;;2.17;;
53261;SDS011;39658;51.090;-1.786;2023-04-07T12:20:17;5.13;;;2.85;;
53261;SDS011;39658;51.090;-1.786;2023-04-07T12:22:43;4.05;;;2.13;;
53261;SDS011;39658;51.090;-1.786;2023-04-07T12:25:10;5.03;;;2.45;;
53261;SDS011;39658;51.090;-1.786;2023-04-07T12:27:37;4.18;;;1.77;;
53261;SDS011;39658;51.090;-1.786;2023-04-07T12:30:06;4.40;;;2.05;;
53261;SDS011;39658;51.090;-1.786;2023-04-07T12:32:33;5.05;;;1.40;;
53261;SDS011;39658;51.090;-1.786;2023-04-07T12:35:01;4.20;;;1.33;;
53261;SDS011;39658;51.090;-1.786;2023-04-07T12:37:29;5.05;;;1.80;;
53261;SDS011;39658;51.090;-1.786;2023-04-07T12:39:57;3.33;;;1.20;;
53261;SDS011;39658;51.090;-1.786;2023-04-07T12:42:24;4.38;;;0.88;;
53261;SDS011;39658;51.090;-1.786;2023-04-07T12:44:51;3.70;;;0.90;;
53261;SDS011;39658;51.090;-1.786;2023-04-07T12:47:19;4.40;;;1.80;;
53261;SDS011;39658;51.090;-1.786;2023-04-07T12:49:46;5.43;;;1.80;;
53261;SDS011;39658;51.090;-1.786;2023-04-07T12:52:13;3.35;;;1.23;;
53261;SDS011;39658;51.090;-1.786;2023-04-07T12:54:40;5.32;;;2.15;;
53261;SDS011;39658;51.090;-1.786;2023-04-07T12:57:09;7.32;;;1.58;;
53261;SDS011;39658;51.090;-1.786;2023-04-07T12:59:36;10.77;;;2.03;;
53261;SDS011;39658;51.090;-1.786;2023-04-07T13:02:03;3.65;;;1.13;;
53261;SDS011;39658;51.090;-1.786;2023-04-07T13:04:31;4.35;;;1.73;;
53261;SDS011;39658;51.090;-1.786;2023-04-07T13:06:59;3.28;;;1.00;;
53261;SDS011;39658;51.090;-1.786;2023-04-07T13:09:27;3.63;;;1.45;;
53261;SDS011;39658;51.090;-1.786;2023-04-07T13:11:53;3.10;;;2.38;;
53261;SDS011;39658;51.090;-1.786;2023-04-07T13:14:21;3.60;;;2.08;;
53261;SDS011;39658;51.090;-1.786;2023-04-07T13:16:48;3.97;;;1.75;;
53261;SDS011;39658;51.090;-1.786;2023-04-07T13:19:15;4.53;;;1.40;;
53261;SDS011;39658;51.090;-1.786;2023-04-07T13:21:43;4.75;;;1.73;;
53261;SDS011;39658;51.090;-1.786;2023-04-07T13:24:10;3.30;;;1.55;;
53261;SDS011;39658;51.090;-1.786;2023-04-07T13:26:37;5.90;;;1.73;;
53261;SDS011;39658;51.090;-1.786;2023-04-07T13:29:03;4.13;;;1.85;;
53261;SDS011;39658;51.090;-1.786;2023-04-07T13:31:30;4.40;;;1.75;;
53261;SDS011;39658;51.090;-1.786;2023-04-07T13:33:57;3.47;;;1.33;;
53261;SDS011;39658;51.090;-1.786;2023-04-07T13:36:24;2.53;;;1.40;;
53261;SDS011;39658;51.090;-1.786;2023-04-07T13:38:53;5.63;;;1.70;;
53261;SDS011;39658;51.090;-1.786;2023-04-07T13:41:20;3.88;;;1.00;;
53261;SDS011;39658;51.090;-1.786;2023-04-07T13:43:47;3.72;;;1.48;;
53261;SDS011;39658;51.090;-1.786;2023-04-07T13:46:14;3.13;;;1.45;;
53261;SDS011;39658;51.090;-1.786;2023-04-07T13:48:42;5.88;;;1.80;;
53261;SDS011;39658;51.090;-1.786;2023-04-07T13:51:09;2.92;;;0.82;;
53261;SDS011;39658;51.090;-1.786;2023-04-07T13:53:36;3.30;;;1.45;;
53261;SDS011;39658;51.090;-1.786;2023-04-07T13:56:04;4.95;;;1.38;;
53261;SDS011;39658;51.090;-1.786;2023-04-07T13:58:32;3.15;;;1.55;;
53261;SDS011;39658;51.090;-1.786;2023-04-07T14:00:59;4.22;;;1.77;;
53261;SDS011;39658;51.090;-1.786;2023-04-07T14:03:26;2.80;;;1.42;;
53261;SDS011;39658;51.090;-1.786;2023-04-07T14:05:53;3.67;;;1.20;;
53261;SDS011;39658;51.090;-1.786;2023-04-07T14:08:24;3.65;;;1.10;;
53261;SDS011;39658;51.090;-1.786;2023-04-07T14:10:51;2.75;;;0.68;;
53261;SDS011;39658;51.090;-1.786;2023-04-07T14:13:19;2.70;;;1.50;;
53261;SDS011;39658;51.090;-1.786;2023-04-07T14:15:47;3.55;;;1.25;;
53261;SDS011;39658;51.090;-1.786;2023-04-07T14:18:14;2.92;;;0.75;;
53261;SDS011;39658;51.090;-1.786;2023-04-07T14:20:41;2.20;;;0.60;;
53261;SDS011;39658;51.090;-1.786;2023-04-07T14:23:08;2.63;;;1.02;;
53261;SDS011;39658;51.090;-1.786;2023-04-07T14:25:35;3.45;;;0.82;;
53261;SDS011;39658;51.090;-1.786;2023-04-07T14:28:02;3.13;;;0.60;;
53261;SDS011;39658;51.090;-1.786;2023-04-07T14:30:30;2.97;;;0.82;;
53261;SDS011;39658;51.090;-1.786;2023-04-07T14:32:58;2.45;;;1.05;;
53261;SDS011;39658;51.090;-1.786;2023-04-07T14:35:25;2.42;;;0.85;;
53261;SDS011;39658;51.090;-1.786;2023-04-07T14:37:52;2.10;;;0.75;;
53261;SDS011;39658;51.090;-1.786;2023-04-07T14:40:19;3.20;;;1.15;;
53261;SDS011;39658;51.090;-1.786;2023-04-07T14:42:46;2.75;;;0.70;;
53261;SDS011;39658;51.090;-1.786;2023-04-07T14:45:13;2.40;;;1.00;;
53261;SDS011;39658;51.090;-1.786;2023-04-07T14:47:41;3.33;;;1.13;;
53261;SDS011;39658;51.090;-1.786;2023-04-07T14:50:08;1.10;;;0.40;;
53261;SDS011;39658;51.090;-1.786;2023-04-07T14:52:35;1.50;;;0.47;;
53261;SDS011;39658;51.090;-1.786;2023-04-07T14:55:02;3.13;;;0.60;;
53261;SDS011;39658;51.090;-1.786;2023-04-07T14:57:29;3.70;;;0.95;;